KIRS

Kirsch Municipal Airport

Sturgis, Michigan, USA
METAR KIRS 141656Z AUTO 00000KT 2 1/2SM BR BKN003 OVC039 08/07 A3014 RMK AO2 T00750069
Observed Flight Rules
Dec-14 @ 16:56 UTC (8 minutes ago) Instrument Flight Rules
Visibility Clouds Conditions
2 1/2 miles
  • Broken at 300' AGL
  • Overcast at 3,900' AGL
  • Mist
Temperatures Readings
Current 8°C / 46°F
Dewpoint 7°C / 45°F
Humidity 93%
Altimeter 30.14" Hg
Pressure 1021 hPa
Elevation 282
METAR KIRS 141656Z AUTO 00000KT 2 1/2SM BR BKN003 OVC039 08/07 A3014 RMK AO2 T00750069
Observed Flight Rules
Dec-14 @ 16:56 UTC
(8 minutes ago)
LIFR
Clouds
  • Broken at 300' AGL
  • Overcast at 3,900' AGL
Conditions
  • Mist
Temperature Dewpoint
8°C / 46°F 7°C / 45°F
Humidity Altimeter Pressure
93% 30.14" Hg 1021 hPa